Greenville, Florida
Current Conditions -  °F | °C
As of 9:15 AM on Thursday 23 Oct 2014 (Local Time) from K40J Reporting Station
Clear Clear  
Wind Chill: 55°   Ceiling: Unl
Heat Index: 55°   Visibility: 10mi
Dew Point: 46°   Wind: 5mph
Humidity: 72%   Direction: 40°NE
Pressure: 30.09"   Gusts: NA
Location:  30.47°N, 83.63°W
Report Text: K40J 231315Z AUTO 04004KT 10SM CLR 13/08 A3009 RMK AO2
Loading
Personal Weather Stations






























Interactive Weather Map
Tropical Storm Tracking
New forecast layout! Learn more

10-Day Weather Forecast

Advertisements
Track Severe Weather on mobile